createdAt,value
2017-11-08T00:01:44.943Z,19.65
2017-11-08T00:04:10.746Z,19.57
2017-11-08T00:06:36.541Z,19.44
2017-11-08T00:09:02.396Z,19.70
2017-11-08T00:11:28.181Z,19.47
2017-11-08T00:13:53.978Z,19.55
2017-11-08T00:16:19.814Z,19.61
2017-11-08T00:18:45.598Z,19.46
2017-11-08T00:21:11.413Z,19.67
2017-11-08T00:23:40.154Z,19.68
2017-11-08T00:26:05.949Z,19.71
2017-11-08T00:28:31.744Z,19.62
2017-11-08T00:30:57.557Z,19.76
2017-11-08T00:33:23.405Z,19.70
2017-11-08T00:35:49.209Z,19.73
2017-11-08T00:38:15.025Z,19.81
2017-11-08T00:40:40.866Z,19.66
2017-11-08T00:43:06.654Z,19.46
2017-11-08T00:45:32.449Z,19.72
2017-11-08T00:47:58.242Z,19.60
2017-11-08T00:50:24.026Z,19.55
2017-11-08T00:52:49.823Z,19.66
2017-11-08T00:55:15.610Z,19.47
2017-11-08T00:57:47.345Z,19.55
2017-11-08T01:00:15.034Z,19.48
2017-11-08T01:02:40.873Z,19.49
2017-11-08T01:05:06.658Z,19.49
2017-11-08T01:07:32.485Z,19.59
2017-11-08T01:09:58.301Z,19.53
2017-11-08T01:12:24.096Z,19.27
2017-11-08T01:14:49.946Z,19.30
2017-11-08T01:17:15.737Z,19.32
2017-11-08T01:19:41.523Z,19.32
2017-11-08T01:22:07.320Z,19.51
2017-11-08T01:24:33.113Z,19.36
2017-11-08T01:26:58.902Z,19.22
2017-11-08T01:29:24.693Z,19.32
2017-11-08T01:31:50.520Z,19.45
2017-11-08T01:34:16.345Z,19.64
2017-11-08T01:36:42.170Z,19.55
2017-11-08T01:39:07.965Z,19.28
2017-11-08T01:41:39.929Z,19.49
2017-11-08T01:44:05.726Z,19.43
2017-11-08T01:46:31.545Z,19.41
2017-11-08T01:48:59.298Z,19.51
2017-11-08T01:51:25.105Z,19.44
2017-11-08T01:53:50.950Z,19.56
2017-11-08T01:56:16.765Z,19.64
2017-11-08T01:58:42.597Z,19.47
2017-11-08T02:01:08.407Z,19.26
2017-11-08T02:03:34.198Z,19.37
2017-11-08T02:06:00.006Z,19.33
2017-11-08T02:08:25.801Z,19.54
2017-11-08T02:10:51.595Z,19.49
2017-11-08T02:13:17.388Z,19.50
2017-11-08T02:15:46.079Z,19.33
2017-11-08T02:18:13.725Z,19.33
2017-11-08T02:20:39.562Z,19.21
2017-11-08T02:23:05.349Z,19.22
2017-11-08T02:25:31.182Z,19.24
2017-11-08T02:27:56.986Z,19.24
2017-11-08T02:30:22.830Z,19.11
2017-11-08T02:32:48.622Z,19.31
2017-11-08T02:35:14.421Z,19.22
2017-11-08T02:37:41.125Z,19.21
2017-11-08T02:40:06.914Z,19.30
2017-11-08T02:42:32.712Z,19.31
2017-11-08T02:44:58.506Z,19.15
2017-11-08T02:47:24.349Z,19.30
2017-11-08T02:49:50.177Z,19.33
2017-11-08T02:52:15.970Z,19.31
2017-11-08T02:54:41.936Z,19.10
2017-11-08T02:57:07.718Z,19.14
2017-11-08T02:59:33.507Z,19.33
2017-11-08T03:02:00.138Z,19.08
2017-11-08T03:04:25.956Z,19.05
2017-11-08T03:06:51.767Z,19.19
2017-11-08T03:09:17.558Z,19.21
2017-11-08T03:11:43.345Z,19.48
2017-11-08T03:14:09.151Z,19.12
2017-11-08T03:16:35.177Z,19.21
2017-11-08T03:19:00.969Z,19.15
2017-11-08T03:21:26.762Z,19.12
2017-11-08T03:23:52.564Z,19.27
2017-11-08T03:26:18.363Z,19.35
2017-11-08T03:28:44.204Z,19.21
2017-11-08T03:31:09.999Z,19.22
2017-11-08T03:33:35.794Z,19.11
2017-11-08T03:36:01.677Z,19.16
2017-11-08T03:38:27.470Z,19.08
2017-11-08T03:40:53.303Z,19.04
2017-11-08T03:43:19.092Z,19.04
2017-11-08T03:45:44.877Z,19.16
2017-11-08T03:48:10.673Z,18.98
2017-11-08T03:50:36.473Z,19.23
2017-11-08T03:53:02.265Z,18.93
2017-11-08T03:55:28.066Z,19.00
2017-11-08T03:57:53.885Z,18.85
2017-11-08T04:00:19.677Z,19.05
2017-11-08T04:02:45.476Z,18.98
2017-11-08T04:05:11.257Z,18.91
2017-11-08T04:07:37.050Z,19.17
2017-11-08T04:10:02.842Z,19.09
2017-11-08T04:12:28.630Z,18.80
2017-11-08T04:14:54.418Z,18.79
2017-11-08T04:17:20.405Z,19.03
2017-11-08T04:19:46.201Z,18.86
2017-11-08T04:22:11.984Z,19.05
2017-11-08T04:24:37.777Z,18.91
2017-11-08T04:27:03.573Z,18.94
2017-11-08T04:29:29.361Z,19.04
2017-11-08T04:31:55.216Z,19.09
2017-11-08T04:34:21.016Z,19.05
2017-11-08T04:36:46.805Z,19.07
2017-11-08T04:39:12.621Z,19.25
2017-11-08T04:41:38.421Z,19.26
2017-11-08T04:44:04.261Z,19.14
2017-11-08T04:46:30.069Z,19.44
2017-11-08T04:48:55.852Z,19.42
2017-11-08T04:51:21.637Z,19.21
2017-11-08T04:53:47.422Z,19.16
2017-11-08T04:56:13.212Z,19.26
2017-11-08T04:58:39.043Z,19.27
2017-11-08T05:01:04.834Z,19.15
2017-11-08T05:03:30.649Z,19.11
2017-11-08T05:05:56.449Z,19.31
2017-11-08T05:08:22.244Z,19.28
2017-11-08T05:10:48.065Z,19.10
2017-11-08T05:13:13.853Z,19.20
2017-11-08T05:15:39.687Z,19.49
2017-11-08T05:18:05.470Z,19.23
2017-11-08T05:20:31.253Z,19.32
2017-11-08T05:22:57.050Z,19.34
2017-11-08T05:25:22.865Z,19.57
2017-11-08T05:27:48.701Z,19.47
2017-11-08T05:30:14.491Z,19.46
2017-11-08T05:32:40.281Z,19.56
2017-11-08T05:35:06.069Z,19.52
2017-11-08T05:37:31.921Z,19.57
2017-11-08T05:39:57.909Z,19.52
2017-11-08T05:42:23.703Z,19.55
2017-11-08T05:44:49.600Z,19.63
2017-11-08T05:47:15.434Z,19.56
2017-11-08T05:49:41.281Z,19.31
2017-11-08T05:52:07.100Z,19.55
2017-11-08T05:54:32.975Z,19.55
2017-11-08T05:56:58.753Z,19.34
2017-11-08T05:59:24.574Z,19.37
2017-11-08T06:01:50.377Z,19.37
2017-11-08T06:04:16.195Z,19.32
2017-11-08T06:06:42.013Z,19.30
2017-11-08T06:09:07.796Z,19.52
2017-11-08T06:11:33.646Z,19.35
2017-11-08T06:13:59.430Z,19.39
2017-11-08T06:16:25.210Z,19.35
2017-11-08T06:18:51.025Z,19.47
2017-11-08T06:21:16.802Z,19.38
2017-11-08T06:23:42.605Z,19.37
2017-11-08T06:26:08.410Z,19.28
2017-11-08T06:28:34.241Z,19.49
2017-11-08T06:31:00.026Z,19.38
2017-11-08T06:33:25.830Z,19.37
2017-11-08T06:35:51.646Z,19.33
2017-11-08T06:38:17.464Z,19.15
2017-11-08T06:40:43.281Z,19.23
2017-11-08T06:43:09.105Z,19.13
2017-11-08T06:45:34.891Z,19.35
2017-11-08T06:48:00.677Z,19.29
2017-11-08T06:50:26.465Z,19.20
2017-11-08T06:52:52.302Z,19.36
2017-11-08T06:55:18.102Z,19.29
2017-11-08T06:57:43.937Z,19.24
2017-11-08T07:00:09.745Z,19.46
2017-11-08T07:02:35.533Z,19.47
2017-11-08T07:05:01.351Z,19.14
2017-11-08T07:07:27.137Z,19.31
2017-11-08T07:09:52.973Z,18.87
2017-11-08T07:12:18.784Z,19.36
2017-11-08T07:14:44.577Z,19.26
2017-11-08T07:17:10.364Z,19.03
2017-11-08T07:19:36.145Z,18.90
2017-11-08T07:22:01.941Z,18.99
2017-11-08T07:24:27.765Z,18.96
2017-11-08T07:26:53.553Z,19.05
2017-11-08T07:29:19.373Z,19.06
2017-11-08T07:31:45.159Z,19.01
2017-11-08T07:34:10.941Z,19.45
2017-11-08T07:36:36.728Z,19.57
2017-11-08T07:39:02.541Z,19.81
2017-11-08T07:41:28.328Z,19.91
2017-11-08T07:43:54.108Z,19.99
2017-11-08T07:46:19.930Z,20.02
2017-11-08T07:48:45.710Z,20.06
2017-11-08T07:51:11.517Z,20.04
2017-11-08T07:53:37.302Z,20.08
2017-11-08T07:56:03.100Z,20.06
2017-11-08T07:58:29.192Z,20.12
2017-11-08T08:00:54.981Z,20.12
2017-11-08T08:03:20.802Z,20.18
2017-11-08T08:05:46.581Z,20.22
2017-11-08T08:08:12.366Z,20.18
2017-11-08T08:10:39.017Z,20.24
2017-11-08T08:13:04.800Z,20.28
2017-11-08T08:15:30.620Z,20.22
2017-11-08T08:17:56.429Z,20.18
2017-11-08T08:20:23.167Z,20.30
2017-11-08T08:22:48.957Z,20.26
2017-11-08T08:25:14.785Z,20.18
2017-11-08T08:27:40.578Z,20.20
2017-11-08T08:30:06.406Z,20.28
2017-11-08T08:32:32.202Z,20.30
2017-11-08T08:34:58.038Z,20.29
2017-11-08T08:37:23.850Z,20.23
2017-11-08T08:39:49.665Z,20.35
2017-11-08T08:42:15.477Z,20.34
2017-11-08T08:44:41.307Z,20.30
2017-11-08T08:47:07.129Z,20.32
2017-11-08T08:49:32.919Z,20.23
2017-11-08T08:51:59.710Z,20.33
2017-11-08T08:54:25.536Z,20.40
2017-11-08T08:56:51.313Z,20.34
2017-11-08T08:59:17.093Z,20.36
2017-11-08T09:01:42.869Z,20.33
2017-11-08T09:04:08.684Z,20.41
2017-11-08T09:06:34.465Z,20.49
2017-11-08T09:09:00.281Z,20.45
2017-11-08T09:11:26.093Z,20.50
2017-11-08T09:13:51.877Z,20.50
2017-11-08T09:16:17.901Z,20.43
2017-11-08T09:18:43.678Z,20.46
2017-11-08T09:21:09.457Z,20.49
2017-11-08T09:23:38.292Z,20.53
2017-11-08T09:26:04.283Z,20.46
2017-11-08T09:28:30.235Z,20.49
2017-11-08T09:30:56.208Z,20.52
2017-11-08T09:33:21.994Z,20.54
2017-11-08T09:35:47.785Z,20.64
2017-11-08T09:38:13.569Z,20.63
2017-11-08T09:40:46.560Z,20.56
2017-11-08T09:43:12.394Z,20.54
2017-11-08T09:45:38.250Z,20.62
2017-11-08T09:48:04.045Z,20.62
2017-11-08T09:50:30.033Z,20.66
2017-11-08T09:52:55.817Z,20.55
2017-11-08T09:55:21.731Z,20.67
2017-11-08T09:57:47.559Z,20.63
2017-11-08T10:00:13.487Z,20.69
2017-11-08T10:02:39.529Z,20.62
2017-11-08T10:05:05.416Z,20.66
2017-11-08T10:07:31.288Z,20.69
2017-11-08T10:09:57.127Z,20.64
2017-11-08T10:12:22.931Z,20.68
2017-11-08T10:14:48.786Z,20.70
2017-11-08T10:17:14.582Z,20.70
2017-11-08T10:19:41.570Z,20.68
2017-11-08T10:22:09.141Z,20.69
2017-11-08T10:24:34.934Z,20.64
2017-11-08T10:27:00.726Z,20.68
2017-11-08T10:29:26.517Z,20.70
2017-11-08T10:31:52.298Z,20.77
2017-11-08T10:34:18.332Z,20.77
2017-11-08T10:36:45.215Z,20.73
2017-11-08T10:39:11.317Z,20.82
2017-11-08T10:41:37.106Z,20.90
2017-11-08T10:44:03.030Z,20.82
2017-11-08T10:46:29.394Z,20.65
2017-11-08T10:48:55.186Z,20.79
2017-11-08T10:51:20.971Z,20.81
2017-11-08T10:53:50.802Z,20.89
2017-11-08T10:56:16.579Z,20.88
2017-11-08T10:58:42.651Z,20.93
2017-11-08T11:01:08.509Z,20.88
2017-11-08T11:03:34.474Z,20.95
2017-11-08T11:06:00.305Z,21.01
2017-11-08T11:08:26.163Z,20.96
2017-11-08T11:10:51.981Z,21.00
2017-11-08T11:13:17.978Z,21.02
2017-11-08T11:15:43.845Z,21.00
2017-11-08T11:18:09.638Z,20.97
2017-11-08T11:20:35.494Z,21.01
2017-11-08T11:23:01.286Z,20.95
2017-11-08T11:25:27.073Z,20.91
2017-11-08T11:27:52.857Z,20.86
2017-11-08T11:30:24.717Z,20.87
2017-11-08T11:32:50.537Z,20.84
2017-11-08T11:35:16.323Z,20.93
2017-11-08T11:37:47.086Z,20.96
2017-11-08T11:40:12.949Z,20.90
2017-11-08T11:42:38.746Z,20.84
2017-11-08T11:45:04.541Z,20.91
2017-11-08T11:47:30.446Z,20.92
2017-11-08T11:50:00.453Z,20.91
2017-11-08T11:52:26.289Z,20.80
2017-11-08T11:54:52.083Z,20.79
2017-11-08T11:57:17.885Z,20.89
2017-11-08T11:59:43.723Z,20.94
2017-11-08T12:02:09.665Z,20.97
2017-11-08T12:04:35.772Z,20.98
2017-11-08T12:07:01.661Z,20.91
2017-11-08T12:09:27.744Z,20.94
2017-11-08T12:11:53.661Z,20.92
2017-11-08T12:14:19.489Z,20.95
2017-11-08T12:16:45.281Z,20.90
2017-11-08T12:19:11.074Z,20.88
2017-11-08T12:21:36.849Z,20.92
2017-11-08T12:24:03.170Z,20.89
2017-11-08T12:26:29.970Z,20.96
2017-11-08T12:28:55.926Z,20.94
2017-11-08T12:31:21.746Z,20.94
2017-11-08T12:33:47.530Z,20.94
2017-11-08T12:36:13.322Z,20.88
2017-11-08T12:38:39.112Z,20.90
2017-11-08T12:41:04.918Z,20.96
2017-11-08T12:43:30.826Z,20.95
2017-11-08T12:46:00.759Z,20.97
2017-11-08T12:48:26.555Z,20.95
2017-11-08T12:50:52.346Z,20.94
2017-11-08T12:53:18.166Z,21.01
2017-11-08T12:55:43.959Z,20.96
2017-11-08T12:58:09.829Z,20.99
2017-11-08T13:00:35.795Z,20.93
2017-11-08T13:03:01.730Z,20.98
2017-11-08T13:05:35.395Z,21.03
2017-11-08T13:08:01.233Z,20.97
2017-11-08T13:10:29.034Z,21.02
2017-11-08T13:12:54.875Z,21.03
2017-11-08T13:15:20.714Z,21.09
2017-11-08T13:17:46.516Z,21.05
2017-11-08T13:20:12.506Z,21.17
2017-11-08T13:22:38.322Z,20.80
2017-11-08T13:25:04.112Z,20.48
2017-11-08T13:27:30.551Z,20.61
2017-11-08T13:29:56.358Z,20.37
2017-11-08T13:32:22.313Z,20.47
2017-11-08T13:34:48.238Z,20.22
2017-11-08T13:37:14.061Z,20.42
2017-11-08T13:39:39.943Z,20.28
2017-11-08T13:42:07.800Z,20.31
2017-11-08T13:44:33.677Z,20.34
2017-11-08T13:46:59.500Z,20.32
2017-11-08T13:49:25.301Z,20.56
2017-11-08T13:51:51.200Z,20.62
2017-11-08T13:54:18.690Z,20.75
2017-11-08T13:56:46.221Z,20.75
2017-11-08T13:59:15.069Z,20.85
2017-11-08T14:01:41.508Z,20.84
2017-11-08T14:04:07.826Z,20.96
2017-11-08T14:06:33.645Z,20.96
2017-11-08T14:08:59.439Z,20.99
2017-11-08T14:11:25.231Z,20.99
2017-11-08T14:13:51.078Z,21.04
2017-11-08T14:16:16.870Z,21.03
2017-11-08T14:18:42.813Z,20.94
2017-11-08T14:21:08.653Z,20.95
2017-11-08T14:23:34.451Z,20.98
2017-11-08T14:26:00.323Z,21.01
2017-11-08T14:28:26.110Z,21.03
2017-11-08T14:30:51.908Z,21.06
2017-11-08T14:33:24.719Z,21.05
2017-11-08T14:35:50.506Z,21.06
2017-11-08T14:38:16.295Z,21.05
2017-11-08T14:40:42.090Z,21.03
2017-11-08T14:43:07.889Z,21.01
2017-11-08T14:45:33.690Z,21.03
2017-11-08T14:48:00.259Z,21.06
2017-11-08T14:50:26.063Z,21.07
2017-11-08T14:52:57.892Z,21.05
2017-11-08T14:55:23.731Z,21.06
2017-11-08T14:57:49.527Z,21.04
2017-11-08T15:00:15.325Z,21.02
2017-11-08T15:02:41.150Z,20.95
2017-11-08T15:05:06.981Z,20.97
2017-11-08T15:07:32.764Z,21.01
2017-11-08T15:09:58.557Z,20.98
2017-11-08T15:12:30.490Z,21.01
2017-11-08T15:14:58.110Z,21.03
2017-11-08T15:17:23.934Z,21.01
2017-11-08T15:19:49.736Z,21.07
2017-11-08T15:22:15.550Z,21.04
2017-11-08T15:24:41.338Z,21.02
2017-11-08T15:27:07.118Z,21.01
2017-11-08T15:29:32.897Z,21.05
2017-11-08T15:31:58.670Z,21.02
2017-11-08T15:34:26.659Z,21.06
2017-11-08T15:36:52.450Z,21.00
2017-11-08T15:39:18.235Z,21.02
2017-11-08T15:41:50.197Z,21.02
2017-11-08T15:44:15.991Z,20.84
2017-11-08T15:46:43.562Z,20.89
2017-11-08T15:49:15.344Z,21.06
2017-11-08T15:51:41.138Z,21.01
2017-11-08T15:54:06.953Z,21.06
2017-11-08T15:56:32.742Z,21.07
2017-11-08T15:58:58.585Z,21.08
2017-11-08T16:01:29.357Z,21.11
2017-11-08T16:03:55.835Z,21.14
2017-11-08T16:06:21.642Z,21.17
2017-11-08T16:08:56.261Z,21.20
2017-11-08T16:11:22.153Z,21.09
2017-11-08T16:13:48.083Z,21.04
2017-11-08T16:16:13.862Z,21.04
2017-11-08T16:18:39.654Z,21.10
2017-11-08T16:21:05.573Z,21.11
2017-11-08T16:23:31.377Z,21.01
2017-11-08T16:25:57.341Z,21.06
2017-11-08T16:28:23.122Z,21.06
2017-11-08T16:30:48.906Z,21.09
2017-11-08T16:33:15.049Z,21.05
2017-11-08T16:35:50.175Z,21.12
2017-11-08T16:38:15.994Z,21.08
2017-11-08T16:40:41.853Z,21.19
2017-11-08T16:43:07.642Z,21.14
2017-11-08T16:45:33.422Z,21.07
2017-11-08T16:47:59.202Z,21.12
2017-11-08T16:50:25.019Z,21.10
2017-11-08T16:52:50.806Z,21.10
2017-11-08T16:55:17.142Z,21.08
2017-11-08T16:57:43.022Z,21.06
2017-11-08T17:00:08.810Z,21.05
2017-11-08T17:02:35.743Z,21.05
2017-11-08T17:05:01.546Z,21.04
2017-11-08T17:07:27.382Z,21.08
2017-11-08T17:09:53.465Z,21.15
2017-11-08T17:12:19.250Z,21.15
2017-11-08T17:14:45.062Z,21.14
2017-11-08T17:17:10.850Z,21.12
2017-11-08T17:19:36.653Z,21.09
2017-11-08T17:22:04.273Z,21.07
2017-11-08T17:24:30.062Z,21.10
2017-11-08T17:26:55.931Z,21.17
2017-11-08T17:29:21.811Z,21.17
2017-11-08T17:31:47.600Z,21.01
2017-11-08T17:34:13.428Z,20.89
2017-11-08T17:36:39.851Z,21.01
2017-11-08T17:39:05.664Z,20.93
2017-11-08T17:41:33.504Z,20.81
2017-11-08T17:44:08.621Z,20.84
2017-11-08T17:46:34.513Z,20.86
2017-11-08T17:49:00.298Z,20.93
2017-11-08T17:51:26.122Z,20.98
2017-11-08T17:53:51.947Z,21.00
2017-11-08T17:56:17.772Z,20.98
2017-11-08T17:58:43.603Z,21.06
2017-11-08T18:01:09.406Z,21.09
2017-11-08T18:03:35.196Z,21.05
2017-11-08T18:06:00.995Z,21.05
2017-11-08T18:08:26.955Z,21.06
2017-11-08T18:10:52.751Z,21.09
2017-11-08T18:13:18.695Z,21.10
2017-11-08T18:15:44.479Z,21.11
2017-11-08T18:18:10.288Z,21.03
2017-11-08T18:20:36.090Z,21.04
2017-11-08T18:23:01.880Z,21.01
2017-11-08T18:25:27.685Z,21.07
2017-11-08T18:27:53.476Z,21.02
2017-11-08T18:30:19.262Z,21.02
2017-11-08T18:32:45.159Z,21.01
2017-11-08T18:35:10.967Z,20.97
2017-11-08T18:37:36.824Z,20.98
2017-11-08T18:40:02.815Z,20.99
2017-11-08T18:42:28.630Z,21.00
2017-11-08T18:44:54.420Z,21.04
2017-11-08T18:47:20.212Z,21.03
2017-11-08T18:49:46.037Z,21.05
2017-11-08T18:52:12.009Z,21.03
2017-11-08T18:54:37.891Z,21.07
2017-11-08T18:57:03.838Z,21.02
2017-11-08T18:59:29.848Z,21.03
2017-11-08T19:01:55.653Z,21.02
2017-11-08T19:04:21.581Z,21.10
2017-11-08T19:06:47.803Z,21.08
2017-11-08T19:09:13.634Z,21.13
2017-11-08T19:11:39.432Z,21.09
2017-11-08T19:14:06.000Z,21.09
2017-11-08T19:16:32.651Z,21.06
2017-11-08T19:18:58.458Z,21.02
2017-11-08T19:21:24.275Z,21.09
2017-11-08T19:23:50.063Z,21.04
2017-11-08T19:26:15.940Z,21.06
2017-11-08T19:28:41.726Z,21.07
2017-11-08T19:31:07.515Z,21.04
2017-11-08T19:33:33.349Z,21.13
2017-11-08T19:35:59.182Z,21.10
2017-11-08T19:38:24.987Z,21.10
2017-11-08T19:40:51.110Z,21.10
2017-11-08T19:43:24.059Z,21.15
2017-11-08T19:45:50.053Z,21.09
2017-11-08T19:48:15.847Z,21.07
2017-11-08T19:50:41.639Z,21.10
2017-11-08T19:53:07.604Z,21.08
2017-11-08T19:55:33.390Z,21.15
2017-11-08T19:57:59.567Z,21.08
2017-11-08T20:00:25.366Z,21.15
2017-11-08T20:02:51.290Z,21.14
2017-11-08T20:05:17.076Z,21.10
2017-11-08T20:07:42.908Z,21.16
2017-11-08T20:10:08.868Z,21.18
2017-11-08T20:12:34.778Z,21.14
2017-11-08T20:15:00.711Z,21.06
2017-11-08T20:17:26.624Z,21.05
2017-11-08T20:19:52.541Z,21.05
2017-11-08T20:22:18.322Z,20.98
2017-11-08T20:24:44.188Z,21.01
2017-11-08T20:27:10.110Z,20.99
2017-11-08T20:29:36.395Z,21.03
2017-11-08T20:32:02.354Z,21.01
2017-11-08T20:34:28.285Z,21.04
2017-11-08T20:36:54.129Z,21.01
2017-11-08T20:39:19.985Z,21.05
2017-11-08T20:41:45.901Z,21.05
2017-11-08T20:44:11.941Z,20.90
2017-11-08T20:46:37.796Z,20.94
2017-11-08T20:49:03.627Z,20.99
2017-11-08T20:51:29.603Z,21.03
2017-11-08T20:53:55.401Z,20.94
2017-11-08T20:56:21.194Z,21.05
2017-11-08T20:58:46.991Z,21.06
2017-11-08T21:01:13.570Z,21.11
2017-11-08T21:03:39.407Z,21.08
2017-11-08T21:06:05.221Z,21.09
2017-11-08T21:08:31.479Z,21.13
2017-11-08T21:10:57.314Z,21.12
2017-11-08T21:13:23.116Z,21.12
2017-11-08T21:15:48.946Z,21.07
2017-11-08T21:18:14.748Z,21.08
2017-11-08T21:20:42.857Z,21.01
2017-11-08T21:23:08.710Z,21.12
2017-11-08T21:25:34.495Z,21.04
2017-11-08T21:28:00.356Z,21.09
2017-11-08T21:30:26.147Z,21.03
2017-11-08T21:32:52.049Z,21.05
2017-11-08T21:35:17.969Z,21.08
2017-11-08T21:37:43.749Z,21.02
2017-11-08T21:40:09.561Z,21.01
2017-11-08T21:42:35.343Z,21.05
2017-11-08T21:45:01.194Z,21.02
2017-11-08T21:47:26.971Z,21.02
2017-11-08T21:49:53.367Z,21.07
2017-11-08T21:52:19.141Z,21.08
2017-11-08T21:54:44.957Z,20.99
2017-11-08T21:57:10.782Z,21.01
2017-11-08T21:59:37.442Z,20.99
2017-11-08T22:02:03.305Z,21.02
2017-11-08T22:04:29.105Z,21.06
2017-11-08T22:06:54.962Z,21.01
2017-11-08T22:09:20.774Z,21.09
2017-11-08T22:11:46.558Z,21.08
2017-11-08T22:14:12.352Z,21.09
2017-11-08T22:16:38.351Z,21.02
2017-11-08T22:19:04.326Z,21.03
2017-11-08T22:21:30.123Z,21.02
2017-11-08T22:23:55.912Z,21.05
2017-11-08T22:26:21.722Z,21.06
2017-11-08T22:28:47.517Z,21.09
2017-11-08T22:31:13.369Z,21.09
2017-11-08T22:33:39.157Z,21.09
2017-11-08T22:36:04.942Z,21.09
2017-11-08T22:38:30.725Z,21.10
2017-11-08T22:40:56.552Z,21.08
2017-11-08T22:43:22.335Z,21.13
2017-11-08T22:45:48.170Z,21.10
2017-11-08T22:48:13.958Z,21.16
2017-11-08T22:50:39.801Z,21.14
2017-11-08T22:53:05.583Z,21.13
2017-11-08T22:55:31.847Z,21.13
2017-11-08T22:57:57.663Z,21.10
2017-11-08T23:00:23.453Z,21.12
2017-11-08T23:02:49.365Z,21.11
2017-11-08T23:05:15.153Z,21.13
2017-11-08T23:07:40.976Z,21.14
2017-11-08T23:10:06.807Z,21.16
2017-11-08T23:12:32.590Z,21.14
2017-11-08T23:14:58.375Z,21.10
2017-11-08T23:17:24.171Z,21.05
2017-11-08T23:19:49.975Z,21.08
2017-11-08T23:22:15.774Z,21.12
2017-11-08T23:24:41.599Z,21.09
2017-11-08T23:27:07.390Z,21.12
2017-11-08T23:29:33.234Z,21.12
2017-11-08T23:31:59.030Z,21.09
2017-11-08T23:34:24.862Z,21.08
2017-11-08T23:36:50.661Z,21.08
2017-11-08T23:39:16.453Z,21.07
2017-11-08T23:41:42.277Z,21.11
2017-11-08T23:44:08.067Z,21.12
2017-11-08T23:46:33.881Z,21.07
2017-11-08T23:48:59.675Z,21.13
2017-11-08T23:51:25.482Z,21.07
2017-11-08T23:53:51.268Z,21.05
2017-11-08T23:56:17.053Z,20.97
2017-11-08T23:58:42.834Z,21.04
